createdAt,value
2018-09-05T00:00:07.393Z,26.83
2018-09-05T00:02:10.924Z,22.37
2018-09-05T00:04:14.488Z,27.43
2018-09-05T00:06:18.007Z,24.00
2018-09-05T00:08:21.587Z,24.30
2018-09-05T00:10:25.131Z,27.90
2018-09-05T00:12:28.672Z,22.33
2018-09-05T00:14:32.231Z,27.97
2018-09-05T00:16:35.924Z,23.70
2018-09-05T00:18:39.563Z,22.40
2018-09-05T00:20:43.966Z,27.60
2018-09-05T00:22:47.509Z,29.27
2018-09-05T00:24:51.147Z,26.87
2018-09-05T00:26:54.735Z,26.10
2018-09-05T00:28:58.289Z,28.20
2018-09-05T00:31:01.967Z,24.73
2018-09-05T00:33:05.928Z,28.10
2018-09-05T00:35:09.670Z,33.47
2018-09-05T00:37:13.214Z,25.83
2018-09-05T00:39:17.054Z,24.17
2018-09-05T00:41:20.676Z,26.77
2018-09-05T00:43:24.317Z,24.17
2018-09-05T00:45:27.877Z,28.10
2018-09-05T00:47:31.460Z,24.13
2018-09-05T00:49:35.107Z,24.17
2018-09-05T00:51:38.768Z,24.37
2018-09-05T00:53:42.331Z,30.27
2018-09-05T00:55:45.968Z,29.03
2018-09-05T00:57:49.499Z,28.50
2018-09-05T00:59:53.107Z,26.13
2018-09-05T01:01:56.680Z,26.63
2018-09-05T01:04:00.295Z,46.57
2018-09-05T01:06:03.877Z,28.20
2018-09-05T01:08:07.404Z,29.90
2018-09-05T01:10:10.960Z,28.70
2018-09-05T01:12:14.510Z,27.60
2018-09-05T01:14:18.077Z,29.03
2018-09-05T01:16:21.591Z,31.40
2018-09-05T01:18:25.200Z,27.70
2018-09-05T01:20:29.089Z,25.73
2018-09-05T01:22:32.644Z,27.50
2018-09-05T01:24:36.347Z,28.93
2018-09-05T01:26:39.883Z,25.23
2018-09-05T01:28:43.443Z,29.03
2018-09-05T01:30:46.977Z,25.50
2018-09-05T01:32:50.604Z,26.00
2018-09-05T01:34:54.118Z,26.07
2018-09-05T01:36:57.711Z,25.40
2018-09-05T01:39:01.595Z,29.00
2018-09-05T01:41:05.243Z,24.57
2018-09-05T01:43:08.808Z,28.77
2018-09-05T01:45:12.616Z,28.27
2018-09-05T01:47:16.348Z,31.57
2018-09-05T01:49:20.142Z,31.67
2018-09-05T01:51:23.685Z,33.43
2018-09-05T01:53:27.231Z,30.93
2018-09-05T01:55:30.961Z,32.00
2018-09-05T01:57:34.511Z,29.97
2018-09-05T01:59:38.498Z,29.40
2018-09-05T02:01:42.053Z,33.13
2018-09-05T02:03:45.699Z,29.10
2018-09-05T02:05:49.318Z,28.37
2018-09-05T02:07:53.080Z,35.40
2018-09-05T02:09:56.824Z,32.33
2018-09-05T02:12:00.388Z,31.87
2018-09-05T02:14:03.971Z,33.80
2018-09-05T02:16:07.608Z,28.40
2018-09-05T02:18:11.226Z,40.57
2018-09-05T02:20:14.921Z,28.13
2018-09-05T02:22:18.455Z,52.00
2018-09-05T02:24:21.988Z,38.37
2018-09-05T02:26:25.640Z,24.50
2018-09-05T02:28:29.195Z,35.43
2018-09-05T02:30:32.717Z,29.30
2018-09-05T02:32:36.494Z,25.77
2018-09-05T02:34:40.009Z,24.77
2018-09-05T02:36:43.864Z,25.33
2018-09-05T02:38:47.437Z,26.40
2018-09-05T02:40:51.603Z,29.53
2018-09-05T02:42:55.206Z,24.17
2018-09-05T02:44:58.775Z,23.97
2018-09-05T02:47:02.362Z,24.30
2018-09-05T02:49:06.007Z,31.30
2018-09-05T02:51:09.722Z,40.20
2018-09-05T02:53:13.399Z,44.37
2018-09-05T02:55:22.185Z,43.60
2018-09-05T02:57:25.775Z,40.13
2018-09-05T02:59:29.298Z,36.67
2018-09-05T03:01:32.799Z,36.57
2018-09-05T03:03:36.347Z,27.20
2018-09-05T03:05:39.908Z,33.37
2018-09-05T03:07:43.437Z,58.20
2018-09-05T03:09:47.039Z,80.37
2018-09-05T03:11:50.706Z,35.53
2018-09-05T03:13:54.220Z,45.57
2018-09-05T03:15:57.732Z,43.23
2018-09-05T03:18:01.266Z,30.83
2018-09-05T03:20:05.008Z,45.83
2018-09-05T03:22:08.687Z,33.33
2018-09-05T03:24:12.387Z,31.77
2018-09-05T03:26:16.040Z,30.27
2018-09-05T03:28:19.646Z,27.67
2018-09-05T03:30:23.225Z,28.83
2018-09-05T03:32:28.094Z,25.93
2018-09-05T03:34:31.694Z,26.13
2018-09-05T03:36:35.222Z,28.87
2018-09-05T03:38:38.847Z,35.70
2018-09-05T03:40:42.663Z,37.47
2018-09-05T03:42:46.228Z,58.40
2018-09-05T03:44:49.761Z,100.70
2018-09-05T03:46:53.528Z,98.07
2018-09-05T03:48:57.096Z,42.47
2018-09-05T03:51:00.648Z,29.97
2018-09-05T03:53:04.288Z,28.93
2018-09-05T03:55:07.865Z,26.80
2018-09-05T03:57:11.584Z,27.07
2018-09-05T03:59:15.120Z,33.37
2018-09-05T04:01:18.850Z,58.87
2018-09-05T04:03:22.367Z,50.17
2018-09-05T04:05:25.918Z,44.20
2018-09-05T04:07:29.865Z,35.50
2018-09-05T04:09:33.419Z,69.20
2018-09-05T04:11:37.260Z,28.97
2018-09-05T04:13:40.784Z,49.03
2018-09-05T04:15:44.402Z,33.10
2018-09-05T04:17:48.016Z,32.13
2018-09-05T04:19:52.001Z,48.87
2018-09-05T04:21:55.551Z,30.40
2018-09-05T04:23:59.124Z,29.90
2018-09-05T04:26:02.666Z,27.57
2018-09-05T04:28:06.288Z,29.47
2018-09-05T04:30:09.892Z,29.57
2018-09-05T04:32:13.642Z,24.10
2018-09-05T04:34:17.203Z,27.13
2018-09-05T04:36:22.314Z,26.43
2018-09-05T04:38:25.975Z,32.30
2018-09-05T04:40:29.646Z,33.47
2018-09-05T04:42:33.204Z,26.43
2018-09-05T04:44:36.833Z,34.10
2018-09-05T04:46:40.404Z,26.80
2018-09-05T04:48:43.887Z,36.27
2018-09-05T04:50:47.404Z,27.73
2018-09-05T04:52:50.904Z,27.30
2018-09-05T04:54:54.449Z,26.10
2018-09-05T04:56:57.997Z,28.00
2018-09-05T04:59:01.509Z,44.43
2018-09-05T05:01:05.226Z,46.30
2018-09-05T05:03:08.800Z,27.37
2018-09-05T05:05:12.387Z,40.43
2018-09-05T05:07:15.883Z,34.70
2018-09-05T05:09:19.572Z,41.23
2018-09-05T05:11:23.119Z,33.97
2018-09-05T05:13:26.633Z,29.47
2018-09-05T05:15:30.366Z,33.40
2018-09-05T05:17:33.847Z,32.70
2018-09-05T05:19:37.347Z,30.13
2018-09-05T05:21:40.889Z,31.90
2018-09-05T05:23:44.468Z,31.80
2018-09-05T05:25:48.092Z,31.80
2018-09-05T05:27:51.701Z,35.53
2018-09-05T05:29:55.240Z,32.53
2018-09-05T05:31:58.791Z,33.37
2018-09-05T05:34:02.320Z,33.70
2018-09-05T05:36:05.852Z,30.13
2018-09-05T05:38:09.439Z,27.57
2018-09-05T05:40:13.921Z,30.23
2018-09-05T05:42:17.499Z,34.97
2018-09-05T05:44:21.117Z,32.37
2018-09-05T05:46:24.772Z,40.40
2018-09-05T05:48:28.293Z,32.97
2018-09-05T05:50:31.847Z,36.27
2018-09-05T05:52:35.460Z,33.07
2018-09-05T05:54:38.997Z,30.70
2018-09-05T05:56:42.586Z,29.30
2018-09-05T05:58:46.108Z,31.93
2018-09-05T06:00:49.663Z,26.90
2018-09-05T06:02:54.031Z,29.07
2018-09-05T06:04:57.542Z,28.53
2018-09-05T06:07:01.056Z,27.57
2018-09-05T06:09:06.848Z,26.07
2018-09-05T06:11:10.587Z,27.07
2018-09-05T06:13:14.239Z,28.63
2018-09-05T06:15:17.776Z,27.23
2018-09-05T06:17:21.456Z,31.27
2018-09-05T06:19:25.011Z,30.23
2018-09-05T06:21:28.573Z,29.57
2018-09-05T06:23:32.160Z,27.23
2018-09-05T06:25:35.671Z,24.60
2018-09-05T06:27:45.584Z,30.70
2018-09-05T06:29:49.072Z,27.90
2018-09-05T06:32:22.554Z,32.57
2018-09-05T06:34:26.211Z,30.40
2018-09-05T06:36:29.828Z,29.00
2018-09-05T06:38:33.348Z,32.53
2018-09-05T06:40:36.864Z,32.13
2018-09-05T06:42:40.443Z,26.07
2018-09-05T06:44:44.037Z,26.03
2018-09-05T06:46:47.567Z,26.17
2018-09-05T06:48:51.136Z,26.07
2018-09-05T06:50:59.909Z,26.37
2018-09-05T06:53:03.505Z,33.10
2018-09-05T06:55:07.341Z,27.27
2018-09-05T06:57:10.868Z,27.47
2018-09-05T06:59:14.372Z,27.00
2018-09-05T07:01:18.037Z,26.93
2018-09-05T07:03:22.059Z,27.73
2018-09-05T07:05:25.703Z,30.57
2018-09-05T07:07:29.580Z,26.93
2018-09-05T07:09:33.083Z,31.83
2018-09-05T07:11:37.743Z,26.17
2018-09-05T07:13:41.254Z,29.43
2018-09-05T07:15:44.905Z,34.17
2018-09-05T07:17:48.487Z,26.80
2018-09-05T07:19:52.122Z,28.83
2018-09-05T07:21:55.771Z,25.63
2018-09-05T07:23:59.291Z,31.30
2018-09-05T07:26:02.844Z,26.77
2018-09-05T07:28:06.347Z,28.80
2018-09-05T07:30:10.123Z,31.57
2018-09-05T07:32:13.643Z,35.40
2018-09-05T07:34:17.244Z,36.07
2018-09-05T07:36:20.892Z,31.27
2018-09-05T07:38:24.580Z,35.30
2018-09-05T07:40:28.201Z,40.40
2018-09-05T07:42:31.700Z,37.83
2018-09-05T07:44:35.309Z,34.27
2018-09-05T07:46:38.868Z,45.63
2018-09-05T07:48:42.462Z,43.53
2018-09-05T07:50:46.062Z,36.63
2018-09-05T07:52:49.607Z,38.30
2018-09-05T07:54:53.201Z,42.17
2018-09-05T07:56:56.759Z,37.17
2018-09-05T07:59:00.460Z,37.63
2018-09-05T08:01:04.014Z,35.93
2018-09-05T08:03:07.495Z,36.53
2018-09-05T08:05:11.019Z,45.83
2018-09-05T08:07:14.611Z,44.50
2018-09-05T08:09:18.180Z,41.27
2018-09-05T08:11:21.762Z,42.40
2018-09-05T08:13:25.447Z,46.63
2018-09-05T08:15:30.471Z,41.87
2018-09-05T08:17:34.007Z,42.10
2018-09-05T08:19:37.599Z,43.70
2018-09-05T08:21:41.148Z,43.93
2018-09-05T08:23:44.666Z,43.70
2018-09-05T08:25:48.284Z,56.07
2018-09-05T08:27:51.806Z,49.57
2018-09-05T08:29:55.360Z,42.80
2018-09-05T08:31:59.015Z,47.83
2018-09-05T08:34:02.558Z,45.50
2018-09-05T08:36:06.507Z,42.90
2018-09-05T08:38:09.805Z,44.30
2018-09-05T08:40:14.207Z,38.90
2018-09-05T08:42:17.868Z,47.50
2018-09-05T08:44:21.426Z,47.23
2018-09-05T08:46:24.860Z,41.80
2018-09-05T08:48:28.801Z,42.70
2018-09-05T08:50:32.108Z,41.03
2018-09-05T08:52:35.614Z,37.77
2018-09-05T08:54:39.106Z,37.67
2018-09-05T08:56:42.693Z,42.60
2018-09-05T08:58:46.655Z,37.63
2018-09-05T09:00:50.099Z,37.43
2018-09-05T09:02:53.783Z,35.07
2018-09-05T09:04:57.300Z,37.60
2018-09-05T09:07:00.829Z,33.97
2018-09-05T09:09:06.611Z,40.77
2018-09-05T09:11:10.158Z,34.10
2018-09-05T09:13:13.713Z,33.60
2018-09-05T09:15:17.232Z,41.33
2018-09-05T09:17:20.826Z,38.57
2018-09-05T09:19:24.592Z,41.43
2018-09-05T09:21:34.713Z,38.93
2018-09-05T09:23:38.191Z,38.17
2018-09-05T09:25:42.400Z,36.90
2018-09-05T09:27:46.037Z,39.53
2018-09-05T09:29:49.609Z,72.50
2018-09-05T09:31:53.131Z,40.03
2018-09-05T09:33:56.785Z,34.23
2018-09-05T09:36:00.536Z,41.50
2018-09-05T09:38:04.146Z,34.47
2018-09-05T09:40:07.836Z,38.10
2018-09-05T09:42:11.360Z,41.20
2018-09-05T09:44:14.972Z,46.90
2018-09-05T09:46:18.931Z,46.03
2018-09-05T09:48:22.500Z,41.27
2018-09-05T09:50:26.019Z,40.20
2018-09-05T09:52:29.533Z,36.67
2018-09-05T09:54:33.387Z,32.20
2018-09-05T09:56:36.985Z,35.80
2018-09-05T09:58:40.540Z,39.30
2018-09-05T10:00:49.482Z,34.30
2018-09-05T10:02:58.359Z,32.80
2018-09-05T10:05:07.201Z,31.00
2018-09-05T10:07:16.265Z,34.50
2018-09-05T10:09:24.922Z,37.10
2018-09-05T10:11:33.655Z,30.47
2018-09-05T10:13:42.325Z,36.40
2018-09-05T10:15:51.338Z,36.57
2018-09-05T10:18:00.303Z,43.23
2018-09-05T10:20:04.061Z,36.80
2018-09-05T10:22:07.698Z,38.07
2018-09-05T10:24:11.196Z,37.07
2018-09-05T10:26:14.883Z,37.47
2018-09-05T10:28:18.678Z,39.43
2018-09-05T10:30:22.232Z,36.90
2018-09-05T10:32:26.193Z,34.90
2018-09-05T10:34:29.782Z,33.80
2018-09-05T10:36:33.392Z,35.57
2018-09-05T10:38:36.960Z,34.10
2018-09-05T10:40:40.493Z,34.43
2018-09-05T10:42:44.116Z,32.20
2018-09-05T10:44:47.612Z,36.90
2018-09-05T10:46:51.115Z,39.27
2018-09-05T10:48:54.640Z,33.57
2018-09-05T10:50:58.257Z,37.63
2018-09-05T10:53:01.897Z,31.77
2018-09-05T10:55:05.441Z,33.87
2018-09-05T10:57:09.528Z,33.47
2018-09-05T10:59:13.024Z,29.20
2018-09-05T11:01:16.701Z,32.87
2018-09-05T11:03:20.313Z,29.90
2018-09-05T11:05:23.836Z,35.20
2018-09-05T11:07:28.082Z,32.33
2018-09-05T11:09:31.585Z,32.43
2018-09-05T11:11:35.131Z,27.87
2018-09-05T11:13:38.685Z,31.07
2018-09-05T11:15:42.180Z,31.47
2018-09-05T11:17:45.867Z,28.23
2018-09-05T11:19:49.363Z,30.77
2018-09-05T11:21:52.868Z,27.40
2018-09-05T11:23:56.367Z,36.00
2018-09-05T11:26:00.064Z,35.40
2018-09-05T11:28:03.700Z,30.53
2018-09-05T11:30:07.283Z,30.53
2018-09-05T11:32:10.887Z,30.70
2018-09-05T11:34:14.626Z,29.77
2018-09-05T11:36:18.208Z,28.10
2018-09-05T11:38:21.813Z,26.90
2018-09-05T11:40:25.391Z,29.27
2018-09-05T11:42:29.083Z,27.07
2018-09-05T11:44:32.611Z,33.20
2018-09-05T11:46:36.566Z,31.60
2018-09-05T11:48:40.094Z,31.20
2018-09-05T11:50:43.603Z,28.53
2018-09-05T11:52:47.205Z,29.67
2018-09-05T11:54:50.747Z,27.17
2018-09-05T11:56:54.240Z,24.63
2018-09-05T11:58:57.808Z,23.63
2018-09-05T12:01:01.395Z,25.47
2018-09-05T12:03:04.968Z,22.83
2018-09-05T12:05:08.590Z,27.17
2018-09-05T12:07:12.688Z,23.87
2018-09-05T12:09:16.256Z,29.43
2018-09-05T12:11:20.124Z,28.53
2018-09-05T12:13:23.728Z,27.23
2018-09-05T12:15:27.539Z,25.87
2018-09-05T12:17:31.073Z,30.50
2018-09-05T12:19:34.576Z,24.20
2018-09-05T12:21:38.079Z,23.43
2018-09-05T12:23:41.728Z,25.83
2018-09-05T12:25:45.295Z,31.50
2018-09-05T12:27:48.839Z,25.70
2018-09-05T12:29:52.351Z,21.53
2018-09-05T12:31:55.869Z,22.50
2018-09-05T12:33:59.417Z,25.03
2018-09-05T12:36:03.131Z,29.13
2018-09-05T12:38:06.634Z,22.20
2018-09-05T12:40:10.276Z,27.27
2018-09-05T12:42:13.789Z,21.40
2018-09-05T12:44:17.339Z,24.07
2018-09-05T12:46:20.999Z,22.30
2018-09-05T12:48:24.819Z,22.77
2018-09-05T12:50:28.419Z,19.50
2018-09-05T12:52:31.966Z,22.23
2018-09-05T12:54:35.558Z,27.17
2018-09-05T12:56:39.071Z,22.25
2018-09-05T12:58:42.657Z,19.17
2018-09-05T13:00:46.335Z,21.27
2018-09-05T13:02:49.835Z,20.43
2018-09-05T13:04:53.442Z,21.60
2018-09-05T13:06:56.931Z,22.37
2018-09-05T13:09:00.588Z,20.15
2018-09-05T13:11:04.099Z,19.10
2018-09-05T13:13:07.601Z,18.93
2018-09-05T13:15:11.198Z,17.95
2018-09-05T13:17:14.758Z,21.12
2018-09-05T13:19:18.295Z,18.70
2018-09-05T13:21:21.780Z,17.90
2018-09-05T13:23:25.505Z,20.23
2018-09-05T13:25:29.392Z,16.70
2018-09-05T13:27:35.957Z,21.00
2018-09-05T13:29:39.682Z,16.73
2018-09-05T13:31:43.237Z,14.17
2018-09-05T13:33:46.726Z,16.25
2018-09-05T13:35:50.447Z,15.00
2018-09-05T13:37:53.926Z,14.83
2018-09-05T13:39:58.899Z,15.03
2018-09-05T13:42:02.451Z,14.78
2018-09-05T13:44:06.064Z,16.77
2018-09-05T13:46:09.890Z,14.55
2018-09-05T13:48:13.399Z,17.30
2018-09-05T13:50:17.035Z,15.95
2018-09-05T13:52:20.640Z,17.17
2018-09-05T13:54:24.357Z,16.20
2018-09-05T13:56:27.989Z,16.17
2018-09-05T13:58:31.968Z,20.23
2018-09-05T14:00:35.566Z,15.97
2018-09-05T14:02:39.154Z,18.37
2018-09-05T14:04:42.769Z,13.60
2018-09-05T14:06:46.277Z,16.57
2018-09-05T14:08:49.795Z,17.48
2018-09-05T14:10:53.319Z,17.98
2018-09-05T14:12:56.966Z,16.25
2018-09-05T14:15:00.467Z,15.72
2018-09-05T14:17:03.979Z,14.60
2018-09-05T14:19:07.536Z,13.50
2018-09-05T14:21:11.068Z,16.48
2018-09-05T14:23:14.699Z,15.88
2018-09-05T14:25:18.222Z,15.23
2018-09-05T14:27:21.785Z,12.73
2018-09-05T14:29:25.239Z,14.68
2018-09-05T14:31:28.829Z,12.90
2018-09-05T14:33:33.216Z,13.58
2018-09-05T14:35:36.724Z,15.23
2018-09-05T14:37:40.229Z,14.70
2018-09-05T14:39:43.843Z,16.57
2018-09-05T14:41:47.346Z,15.23
2018-09-05T14:43:50.818Z,14.23
2018-09-05T14:45:54.367Z,15.13
2018-09-05T14:47:57.895Z,14.90
2018-09-05T14:50:01.556Z,17.73
2018-09-05T14:52:05.154Z,16.43
2018-09-05T14:54:08.964Z,14.57
2018-09-05T14:56:12.348Z,15.60
2018-09-05T14:58:15.918Z,16.27
2018-09-05T15:00:19.488Z,15.08
2018-09-05T15:02:23.032Z,16.17
2018-09-05T15:04:26.603Z,14.70
2018-09-05T15:06:30.479Z,16.10
2018-09-05T15:08:33.934Z,18.55
2018-09-05T15:10:37.488Z,17.50
2018-09-05T15:12:40.977Z,16.57
2018-09-05T15:14:44.496Z,18.02
2018-09-05T15:16:48.107Z,16.82
2018-09-05T15:18:51.753Z,18.80
2018-09-05T15:20:55.468Z,18.55
2018-09-05T15:22:58.960Z,17.70
2018-09-05T15:25:02.484Z,16.80
2018-09-05T15:29:35.112Z,19.95
2018-09-05T15:31:38.743Z,18.27
2018-09-05T15:33:42.332Z,15.83
2018-09-05T15:35:46.488Z,17.57
2018-09-05T15:37:50.012Z,19.47
2018-09-05T15:39:53.587Z,17.12
2018-09-05T15:41:57.291Z,15.10
2018-09-05T15:44:00.851Z,16.43
2018-09-05T15:46:04.551Z,16.73
2018-09-05T15:48:08.068Z,15.95
2018-09-05T15:50:11.728Z,16.73
2018-09-05T15:52:15.276Z,16.57
2018-09-05T15:54:18.844Z,18.10
2018-09-05T15:56:22.663Z,15.78
2018-09-05T15:58:26.262Z,18.25
2018-09-05T16:00:29.835Z,18.82
2018-09-05T16:02:33.351Z,20.23
2018-09-05T16:04:36.874Z,17.40
2018-09-05T16:06:40.428Z,16.40
2018-09-05T16:08:45.145Z,18.97
2018-09-05T16:10:48.667Z,20.20
2018-09-05T16:12:52.440Z,17.98
2018-09-05T16:14:56.113Z,19.40
2018-09-05T16:16:59.662Z,16.90
2018-09-05T16:19:03.187Z,20.95
2018-09-05T16:23:22.179Z,22.27
2018-09-05T16:25:25.775Z,16.65
2018-09-05T16:27:29.384Z,20.43
2018-09-05T16:29:32.963Z,21.87
2018-09-05T16:31:36.500Z,23.30
2018-09-05T16:33:40.135Z,17.57
2018-09-05T16:35:43.708Z,20.33
2018-09-05T16:37:47.200Z,20.97
2018-09-05T16:39:50.751Z,21.30
2018-09-05T16:41:54.457Z,22.17
2018-09-05T16:43:58.146Z,23.77
2018-09-05T16:46:01.768Z,22.17
2018-09-05T16:48:05.587Z,18.32
2018-09-05T16:50:09.120Z,25.82
2018-09-05T16:52:12.891Z,18.47
2018-09-05T16:54:16.399Z,19.23
2018-09-05T16:56:20.447Z,19.60
2018-09-05T16:58:23.970Z,18.70
2018-09-05T17:00:27.727Z,19.63
2018-09-05T17:02:31.273Z,18.17
2018-09-05T17:04:34.876Z,20.57
2018-09-05T17:06:45.060Z,19.23
2018-09-05T17:08:48.640Z,20.47
2018-09-05T17:10:52.271Z,17.40
2018-09-05T17:12:55.816Z,19.87
2018-09-05T17:14:59.357Z,20.23
2018-09-05T17:17:03.356Z,20.30
2018-09-05T17:19:06.948Z,17.90
2018-09-05T17:21:10.588Z,24.43
2018-09-05T17:23:14.487Z,21.30
2018-09-05T17:25:18.173Z,22.77
2018-09-05T17:27:21.700Z,21.13
2018-09-05T17:29:25.224Z,20.80
2018-09-05T17:31:28.767Z,21.13
2018-09-05T17:33:32.268Z,23.63
2018-09-05T17:35:36.191Z,22.03
2018-09-05T17:37:39.716Z,22.03
2018-09-05T17:39:43.303Z,20.77
2018-09-05T17:41:47.040Z,23.47
2018-09-05T17:43:50.565Z,20.93
2018-09-05T17:45:54.276Z,21.77
2018-09-05T17:47:57.824Z,23.03
2018-09-05T17:50:01.611Z,24.53
2018-09-05T17:52:05.272Z,23.67
2018-09-05T17:54:08.922Z,24.60
2018-09-05T17:56:12.593Z,26.23
2018-09-05T17:58:16.294Z,24.57
2018-09-05T18:00:19.923Z,24.40
2018-09-05T18:02:23.613Z,24.27
2018-09-05T18:04:27.519Z,21.23
2018-09-05T18:06:31.103Z,25.20
2018-09-05T18:08:34.995Z,27.87
2018-09-05T18:10:38.713Z,23.13
2018-09-05T18:12:42.402Z,24.27
2018-09-05T18:14:46.193Z,22.73
2018-09-05T18:16:49.994Z,20.50
2018-09-05T18:18:53.629Z,22.00
2018-09-05T18:20:57.232Z,21.67
2018-09-05T18:23:01.070Z,21.63
2018-09-05T18:25:04.843Z,22.60
2018-09-05T18:27:08.607Z,23.33
2018-09-05T18:29:12.293Z,23.67
2018-09-05T18:31:16.172Z,26.97
2018-09-05T18:33:19.861Z,22.87
2018-09-05T18:35:23.495Z,29.40
2018-09-05T18:37:27.224Z,26.03
2018-09-05T18:39:31.024Z,24.57
2018-09-05T18:41:34.636Z,23.07
2018-09-05T18:43:38.321Z,27.50
2018-09-05T18:45:41.970Z,23.63
2018-09-05T18:47:45.639Z,27.33
2018-09-05T18:49:49.202Z,25.37
2018-09-05T18:51:53.134Z,26.87
2018-09-05T18:53:56.771Z,25.20
2018-09-05T18:56:01.104Z,25.43
2018-09-05T18:58:05.028Z,26.17
2018-09-05T19:00:08.716Z,25.77
2018-09-05T19:02:12.570Z,24.00
2018-09-05T19:04:16.329Z,26.50
2018-09-05T19:06:19.921Z,30.37
2018-09-05T19:08:23.600Z,27.03
2018-09-05T19:10:27.151Z,28.07
2018-09-05T19:12:30.705Z,28.30
2018-09-05T19:14:34.457Z,33.33
2018-09-05T19:16:38.344Z,29.23
2018-09-05T19:18:42.006Z,27.77
2018-09-05T19:20:45.860Z,29.90
2018-09-05T19:22:49.568Z,28.23
2018-09-05T19:24:53.239Z,28.27
2018-09-05T19:26:56.804Z,33.17
2018-09-05T19:29:00.362Z,30.53
2018-09-05T19:31:03.962Z,30.13
2018-09-05T19:33:07.749Z,32.17
2018-09-05T19:35:11.326Z,30.43
2018-09-05T19:37:15.040Z,29.23
2018-09-05T19:39:18.599Z,29.10
2018-09-05T19:41:22.718Z,33.53
2018-09-05T19:43:26.267Z,35.23
2018-09-05T19:45:29.964Z,33.73
2018-09-05T19:47:33.931Z,33.20
2018-09-05T19:49:37.744Z,37.33
2018-09-05T19:51:41.304Z,32.63
2018-09-05T19:53:45.085Z,34.87
2018-09-05T19:55:48.644Z,34.10
2018-09-05T19:57:52.407Z,31.47
2018-09-05T19:59:55.979Z,35.90
2018-09-05T20:01:59.640Z,29.70
2018-09-05T20:04:03.230Z,33.10
2018-09-05T20:06:07.066Z,31.43
2018-09-05T20:08:10.602Z,33.07
2018-09-05T20:10:14.168Z,36.03
2018-09-05T20:12:17.845Z,30.60
2018-09-05T20:14:21.544Z,34.20
2018-09-05T20:16:25.102Z,33.10
2018-09-05T20:18:28.745Z,34.23
2018-09-05T20:20:32.269Z,37.60
2018-09-05T20:22:35.836Z,33.77
2018-09-05T20:24:39.640Z,32.43
2018-09-05T20:26:43.192Z,31.37
2018-09-05T20:28:46.728Z,31.10
2018-09-05T20:30:50.538Z,33.67
2018-09-05T20:32:54.195Z,32.40
2018-09-05T20:34:57.971Z,34.40
2018-09-05T20:37:01.584Z,31.97
2018-09-05T20:39:08.130Z,31.13
2018-09-05T20:41:11.727Z,30.77
2018-09-05T20:43:15.590Z,33.57
2018-09-05T20:45:19.124Z,28.80
2018-09-05T20:47:22.671Z,36.40
2018-09-05T20:49:26.194Z,34.03
2018-09-05T20:51:29.946Z,31.57
2018-09-05T20:53:33.528Z,37.33
2018-09-05T20:55:37.036Z,33.43
2018-09-05T20:57:40.712Z,31.80
2018-09-05T20:59:44.242Z,31.37
2018-09-05T21:01:47.848Z,32.73
2018-09-05T21:03:57.805Z,32.67
2018-09-05T21:06:01.778Z,30.97
2018-09-05T21:08:05.480Z,32.93
2018-09-05T21:10:09.196Z,31.83
2018-09-05T21:12:12.885Z,35.93
2018-09-05T21:14:16.412Z,32.53
2018-09-05T21:16:20.040Z,38.17
2018-09-05T21:18:23.674Z,33.57
2018-09-05T21:20:27.235Z,33.67
2018-09-05T21:22:30.891Z,35.53
2018-09-05T21:24:34.475Z,36.57
2018-09-05T21:26:38.218Z,33.87
2018-09-05T21:28:41.768Z,36.80
2018-09-05T21:30:45.303Z,33.07
2018-09-05T21:32:49.164Z,32.20
2018-09-05T21:34:52.789Z,34.00
2018-09-05T21:36:56.399Z,34.97
2018-09-05T21:38:59.972Z,36.50
2018-09-05T21:41:03.514Z,36.83
2018-09-05T21:43:07.159Z,36.53
2018-09-05T21:45:10.734Z,36.27
2018-09-05T21:47:14.339Z,42.93
2018-09-05T21:49:17.875Z,36.43
2018-09-05T21:51:21.414Z,34.73
2018-09-05T21:53:25.073Z,37.13
2018-09-05T21:55:28.672Z,35.87
2018-09-05T21:57:32.244Z,37.70
2018-09-05T21:59:35.932Z,33.50
2018-09-05T22:01:39.480Z,37.63
2018-09-05T22:03:43.165Z,35.17
2018-09-05T22:05:46.736Z,34.13
2018-09-05T22:07:50.358Z,37.50
2018-09-05T22:09:53.897Z,39.90
2018-09-05T22:11:57.476Z,35.77
2018-09-05T22:14:01.090Z,36.07
2018-09-05T22:16:04.654Z,35.30
2018-09-05T22:18:08.234Z,32.77
2018-09-05T22:20:12.039Z,35.70
2018-09-05T22:22:15.582Z,34.17
2018-09-05T22:24:19.339Z,35.27
2018-09-05T22:26:22.896Z,34.93
2018-09-05T22:28:26.435Z,35.13
2018-09-05T22:30:30.705Z,36.40
2018-09-05T22:32:34.323Z,37.17
2018-09-05T22:34:37.850Z,34.17
2018-09-05T22:36:42.085Z,34.60
2018-09-05T22:38:45.726Z,33.43
2018-09-05T22:40:55.162Z,39.73
2018-09-05T22:43:10.532Z,32.97
2018-09-05T22:45:25.378Z,36.87
2018-09-05T22:47:41.837Z,35.90
2018-09-05T22:50:02.634Z,38.27
2018-09-05T22:52:27.653Z,38.73
2018-09-05T22:55:50.459Z,39.47
2018-09-05T22:58:10.802Z,41.43
2018-09-05T23:00:26.661Z,36.27
2018-09-05T23:03:23.159Z,34.70
2018-09-05T23:06:44.287Z,36.30
2018-09-05T23:08:47.820Z,38.60
2018-09-05T23:11:02.638Z,36.73
2018-09-05T23:13:17.519Z,35.97
2018-09-05T23:15:32.305Z,37.77
2018-09-05T23:17:47.091Z,35.20
2018-09-05T23:20:09.553Z,39.23
2018-09-05T23:22:13.104Z,39.23
2018-09-05T23:24:16.696Z,34.87
2018-09-05T23:26:20.303Z,35.33
2018-09-05T23:28:23.823Z,36.53
2018-09-05T23:30:27.489Z,37.77
2018-09-05T23:32:31.121Z,38.17
2018-09-05T23:34:34.682Z,38.43
2018-09-05T23:36:38.325Z,37.97
2018-09-05T23:38:41.961Z,39.53
2018-09-05T23:40:45.612Z,38.17
2018-09-05T23:42:49.151Z,38.50
2018-09-05T23:44:52.926Z,35.73
2018-09-05T23:46:56.548Z,36.07
2018-09-05T23:49:00.165Z,38.17
2018-09-05T23:51:03.753Z,37.23
2018-09-05T23:53:07.298Z,37.87
2018-09-05T23:55:10.821Z,37.20
2018-09-05T23:57:14.540Z,38.63
2018-09-05T23:59:18.119Z,38.00
